sensor_id;sensor_type;location;lat;lon;timestamp;P1;durP1;ratioP1;P2;durP2;ratioP2
16179;SDS011;8196;49.428;10.906;2023-05-20T00:00:57;3.30;;;3.00;;
16179;SDS011;8196;49.428;10.906;2023-05-20T00:03:24;3.33;;;3.00;;
16179;SDS011;8196;49.428;10.906;2023-05-20T00:05:51;3.47;;;3.00;;
16179;SDS011;8196;49.428;10.906;2023-05-20T00:08:18;3.47;;;2.75;;
16179;SDS011;8196;49.428;10.906;2023-05-20T00:10:45;4.15;;;3.28;;
16179;SDS011;8196;49.428;10.906;2023-05-20T00:13:11;5.07;;;3.10;;
16179;SDS011;8196;49.428;10.906;2023-05-20T00:15:38;3.60;;;3.20;;
16179;SDS011;8196;49.428;10.906;2023-05-20T00:18:06;3.50;;;3.20;;
16179;SDS011;8196;49.428;10.906;2023-05-20T00:20:33;4.18;;;2.80;;
16179;SDS011;8196;49.428;10.906;2023-05-20T00:23:00;4.75;;;3.30;;
16179;SDS011;8196;49.428;10.906;2023-05-20T00:25:27;3.65;;;3.00;;
16179;SDS011;8196;49.428;10.906;2023-05-20T00:27:55;4.88;;;2.80;;
16179;SDS011;8196;49.428;10.906;2023-05-20T00:30:21;4.60;;;3.00;;
16179;SDS011;8196;49.428;10.906;2023-05-20T00:32:48;3.30;;;2.95;;
16179;SDS011;8196;49.428;10.906;2023-05-20T00:35:15;3.30;;;3.00;;
16179;SDS011;8196;49.428;10.906;2023-05-20T00:37:42;4.22;;;3.25;;
16179;SDS011;8196;49.428;10.906;2023-05-20T00:40:09;3.05;;;2.70;;
16179;SDS011;8196;49.428;10.906;2023-05-20T00:42:39;3.55;;;2.95;;
16179;SDS011;8196;49.428;10.906;2023-05-20T00:45:06;4.53;;;2.90;;
16179;SDS011;8196;49.428;10.906;2023-05-20T00:47:33;4.67;;;3.10;;
16179;SDS011;8196;49.428;10.906;2023-05-20T00:50:02;4.65;;;3.03;;
16179;SDS011;8196;49.428;10.906;2023-05-20T00:52:30;3.45;;;2.80;;
16179;SDS011;8196;49.428;10.906;2023-05-20T00:54:57;3.83;;;2.95;;
16179;SDS011;8196;49.428;10.906;2023-05-20T00:57:25;3.63;;;3.00;;
16179;SDS011;8196;49.428;10.906;2023-05-20T00:59:52;3.00;;;2.70;;
16179;SDS011;8196;49.428;10.906;2023-05-20T01:02:19;4.30;;;3.23;;
16179;SDS011;8196;49.428;10.906;2023-05-20T01:04:46;3.20;;;2.90;;
16179;SDS011;8196;49.428;10.906;2023-05-20T01:07:15;4.55;;;2.80;;
16179;SDS011;8196;49.428;10.906;2023-05-20T01:09:43;3.08;;;2.80;;
16179;SDS011;8196;49.428;10.906;2023-05-20T01:14:42;3.92;;;2.95;;
16179;SDS011;8196;49.428;10.906;2023-05-20T01:17:14;5.00;;;3.42;;
16179;SDS011;8196;49.428;10.906;2023-05-20T01:19:44;4.13;;;3.25;;
16179;SDS011;8196;49.428;10.906;2023-05-20T01:22:11;4.28;;;3.10;;
16179;SDS011;8196;49.428;10.906;2023-05-20T01:24:40;4.07;;;3.40;;
16179;SDS011;8196;49.428;10.906;2023-05-20T01:27:09;3.72;;;3.17;;
16179;SDS011;8196;49.428;10.906;2023-05-20T01:29:39;4.68;;;3.10;;
16179;SDS011;8196;49.428;10.906;2023-05-20T01:32:10;4.45;;;3.67;;
16179;SDS011;8196;49.428;10.906;2023-05-20T01:34:40;4.60;;;3.47;;
16179;SDS011;8196;49.428;10.906;2023-05-20T01:37:08;3.67;;;3.22;;
16179;SDS011;8196;49.428;10.906;2023-05-20T01:39:36;5.47;;;3.50;;
16179;SDS011;8196;49.428;10.906;2023-05-20T01:42:08;4.22;;;3.20;;
16179;SDS011;8196;49.428;10.906;2023-05-20T01:44:36;4.07;;;3.50;;
16179;SDS011;8196;49.428;10.906;2023-05-20T01:47:03;3.63;;;3.20;;
16179;SDS011;8196;49.428;10.906;2023-05-20T01:49:30;4.32;;;3.33;;
16179;SDS011;8196;49.428;10.906;2023-05-20T01:51:57;3.75;;;3.25;;
16179;SDS011;8196;49.428;10.906;2023-05-20T01:54:24;4.35;;;3.38;;
16179;SDS011;8196;49.428;10.906;2023-05-20T01:56:51;4.35;;;3.67;;
16179;SDS011;8196;49.428;10.906;2023-05-20T01:59:18;4.17;;;3.60;;
16179;SDS011;8196;49.428;10.906;2023-05-20T02:01:44;5.13;;;3.60;;
16179;SDS011;8196;49.428;10.906;2023-05-20T02:04:11;4.65;;;3.70;;
16179;SDS011;8196;49.428;10.906;2023-05-20T02:06:38;3.83;;;3.35;;
16179;SDS011;8196;49.428;10.906;2023-05-20T02:09:05;4.63;;;3.45;;
16179;SDS011;8196;49.428;10.906;2023-05-20T02:11:32;4.05;;;3.63;;
16179;SDS011;8196;49.428;10.906;2023-05-20T02:13:58;3.70;;;3.30;;
16179;SDS011;8196;49.428;10.906;2023-05-20T02:16:25;4.25;;;3.35;;
16179;SDS011;8196;49.428;10.906;2023-05-20T02:18:52;3.90;;;3.40;;
16179;SDS011;8196;49.428;10.906;2023-05-20T02:21:19;5.07;;;3.60;;
16179;SDS011;8196;49.428;10.906;2023-05-20T02:23:45;4.72;;;3.78;;
16179;SDS011;8196;49.428;10.906;2023-05-20T02:26:12;3.67;;;3.33;;
16179;SDS011;8196;49.428;10.906;2023-05-20T02:28:39;4.10;;;3.70;;
16179;SDS011;8196;49.428;10.906;2023-05-20T02:31:11;4.15;;;3.75;;
16179;SDS011;8196;49.428;10.906;2023-05-20T02:33:38;4.53;;;3.80;;
16179;SDS011;8196;49.428;10.906;2023-05-20T02:36:05;5.80;;;4.30;;
16179;SDS011;8196;49.428;10.906;2023-05-20T02:38:32;5.57;;;4.28;;
16179;SDS011;8196;49.428;10.906;2023-05-20T02:40:59;4.83;;;4.10;;
16179;SDS011;8196;49.428;10.906;2023-05-20T02:43:25;4.20;;;3.78;;
16179;SDS011;8196;49.428;10.906;2023-05-20T02:45:52;6.95;;;4.30;;
16179;SDS011;8196;49.428;10.906;2023-05-20T02:48:19;4.18;;;3.67;;
16179;SDS011;8196;49.428;10.906;2023-05-20T02:50:46;6.25;;;4.55;;
16179;SDS011;8196;49.428;10.906;2023-05-20T02:53:13;6.22;;;3.80;;
16179;SDS011;8196;49.428;10.906;2023-05-20T02:55:39;4.75;;;4.03;;
16179;SDS011;8196;49.428;10.906;2023-05-20T02:58:06;4.63;;;4.10;;
16179;SDS011;8196;49.428;10.906;2023-05-20T03:00:33;4.47;;;4.07;;
16179;SDS011;8196;49.428;10.906;2023-05-20T03:03:06;4.47;;;4.07;;
16179;SDS011;8196;49.428;10.906;2023-05-20T03:05:33;6.25;;;4.35;;
16179;SDS011;8196;49.428;10.906;2023-05-20T03:08:05;4.97;;;4.47;;
16179;SDS011;8196;49.428;10.906;2023-05-20T03:10:35;4.30;;;3.90;;
16179;SDS011;8196;49.428;10.906;2023-05-20T03:13:04;4.93;;;4.15;;
16179;SDS011;8196;49.428;10.906;2023-05-20T03:15:34;5.63;;;4.40;;
16179;SDS011;8196;49.428;10.906;2023-05-20T03:18:02;7.38;;;5.20;;
16179;SDS011;8196;49.428;10.906;2023-05-20T03:20:29;5.57;;;4.40;;
16179;SDS011;8196;49.428;10.906;2023-05-20T03:22:57;6.22;;;4.55;;
16179;SDS011;8196;49.428;10.906;2023-05-20T03:25:24;5.72;;;4.47;;
16179;SDS011;8196;49.428;10.906;2023-05-20T03:27:53;11.15;;;7.85;;
16179;SDS011;8196;49.428;10.906;2023-05-20T03:30:20;14.98;;;9.80;;
16179;SDS011;8196;49.428;10.906;2023-05-20T03:32:47;9.95;;;7.82;;
16179;SDS011;8196;49.428;10.906;2023-05-20T03:35:14;6.97;;;5.33;;
16179;SDS011;8196;49.428;10.906;2023-05-20T03:37:41;5.70;;;5.10;;
16179;SDS011;8196;49.428;10.906;2023-05-20T03:40:08;4.85;;;4.35;;
16179;SDS011;8196;49.428;10.906;2023-05-20T03:42:36;5.93;;;4.85;;
16179;SDS011;8196;49.428;10.906;2023-05-20T03:45:03;5.07;;;4.25;;
16179;SDS011;8196;49.428;10.906;2023-05-20T03:47:31;5.75;;;4.80;;
16179;SDS011;8196;49.428;10.906;2023-05-20T03:49:57;6.32;;;4.50;;
16179;SDS011;8196;49.428;10.906;2023-05-20T03:52:24;5.45;;;4.30;;
16179;SDS011;8196;49.428;10.906;2023-05-20T03:54:52;6.05;;;4.45;;
16179;SDS011;8196;49.428;10.906;2023-05-20T03:57:19;5.40;;;4.88;;
16179;SDS011;8196;49.428;10.906;2023-05-20T03:59:46;8.23;;;4.77;;
16179;SDS011;8196;49.428;10.906;2023-05-20T04:02:12;7.80;;;5.30;;
16179;SDS011;8196;49.428;10.906;2023-05-20T04:04:39;7.60;;;5.13;;
16179;SDS011;8196;49.428;10.906;2023-05-20T04:07:10;5.83;;;4.90;;
16179;SDS011;8196;49.428;10.906;2023-05-20T04:09:37;6.25;;;5.22;;
16179;SDS011;8196;49.428;10.906;2023-05-20T04:12:04;5.00;;;4.43;;
16179;SDS011;8196;49.428;10.906;2023-05-20T04:14:32;5.72;;;4.45;;
16179;SDS011;8196;49.428;10.906;2023-05-20T04:17:02;6.45;;;4.65;;
16179;SDS011;8196;49.428;10.906;2023-05-20T04:19:30;6.20;;;4.38;;
16179;SDS011;8196;49.428;10.906;2023-05-20T04:21:56;6.20;;;4.80;;
16179;SDS011;8196;49.428;10.906;2023-05-20T04:24:24;5.75;;;5.03;;
16179;SDS011;8196;49.428;10.906;2023-05-20T04:26:52;5.28;;;4.65;;
16179;SDS011;8196;49.428;10.906;2023-05-20T04:29:19;5.97;;;4.88;;
16179;SDS011;8196;49.428;10.906;2023-05-20T04:31:46;5.38;;;4.60;;
16179;SDS011;8196;49.428;10.906;2023-05-20T04:34:13;6.07;;;4.50;;
16179;SDS011;8196;49.428;10.906;2023-05-20T04:36:44;5.95;;;4.93;;
16179;SDS011;8196;49.428;10.906;2023-05-20T04:39:11;6.25;;;5.05;;
16179;SDS011;8196;49.428;10.906;2023-05-20T04:41:38;6.30;;;5.00;;
16179;SDS011;8196;49.428;10.906;2023-05-20T04:44:05;5.70;;;5.10;;
16179;SDS011;8196;49.428;10.906;2023-05-20T04:46:32;5.80;;;5.15;;
16179;SDS011;8196;49.428;10.906;2023-05-20T04:48:59;6.45;;;5.00;;
16179;SDS011;8196;49.428;10.906;2023-05-20T04:51:26;6.00;;;5.40;;
16179;SDS011;8196;49.428;10.906;2023-05-20T04:53:54;7.10;;;4.90;;
16179;SDS011;8196;49.428;10.906;2023-05-20T04:56:21;5.45;;;4.88;;
16179;SDS011;8196;49.428;10.906;2023-05-20T04:58:47;5.88;;;4.80;;
16179;SDS011;8196;49.428;10.906;2023-05-20T05:01:14;6.33;;;4.53;;
16179;SDS011;8196;49.428;10.906;2023-05-20T05:03:41;6.18;;;4.68;;
16179;SDS011;8196;49.428;10.906;2023-05-20T05:06:08;8.60;;;5.05;;
16179;SDS011;8196;49.428;10.906;2023-05-20T05:08:34;5.33;;;4.83;;
16179;SDS011;8196;49.428;10.906;2023-05-20T05:11:03;6.85;;;5.07;;
16179;SDS011;8196;49.428;10.906;2023-05-20T05:13:31;6.00;;;5.40;;
16179;SDS011;8196;49.428;10.906;2023-05-20T05:15:58;6.45;;;5.07;;
16179;SDS011;8196;49.428;10.906;2023-05-20T05:18:26;5.82;;;5.28;;
16179;SDS011;8196;49.428;10.906;2023-05-20T05:21:01;6.32;;;5.47;;
16179;SDS011;8196;49.428;10.906;2023-05-20T05:23:28;5.63;;;5.13;;
16179;SDS011;8196;49.428;10.906;2023-05-20T05:25:55;6.82;;;5.10;;
16179;SDS011;8196;49.428;10.906;2023-05-20T05:28:22;5.88;;;5.25;;
16179;SDS011;8196;49.428;10.906;2023-05-20T05:30:50;6.25;;;5.40;;
16179;SDS011;8196;49.428;10.906;2023-05-20T05:33:19;5.30;;;4.60;;
16179;SDS011;8196;49.428;10.906;2023-05-20T05:35:45;7.13;;;5.22;;
16179;SDS011;8196;49.428;10.906;2023-05-20T05:38:12;5.90;;;5.30;;
16179;SDS011;8196;49.428;10.906;2023-05-20T05:40:39;5.60;;;5.00;;
16179;SDS011;8196;49.428;10.906;2023-05-20T05:43:06;7.07;;;5.38;;
16179;SDS011;8196;49.428;10.906;2023-05-20T05:48:00;5.88;;;5.28;;
16179;SDS011;8196;49.428;10.906;2023-05-20T05:50:27;6.13;;;4.93;;
16179;SDS011;8196;49.428;10.906;2023-05-20T05:52:54;5.40;;;4.80;;
16179;SDS011;8196;49.428;10.906;2023-05-20T05:55:20;6.93;;;5.07;;
16179;SDS011;8196;49.428;10.906;2023-05-20T05:57:49;7.25;;;5.28;;
16179;SDS011;8196;49.428;10.906;2023-05-20T06:00:16;6.20;;;4.97;;
16179;SDS011;8196;49.428;10.906;2023-05-20T06:02:43;6.45;;;5.40;;
16179;SDS011;8196;49.428;10.906;2023-05-20T06:05:11;7.85;;;5.13;;
16179;SDS011;8196;49.428;10.906;2023-05-20T06:07:37;6.30;;;5.27;;
16179;SDS011;8196;49.428;10.906;2023-05-20T06:10:04;7.65;;;5.35;;
16179;SDS011;8196;49.428;10.906;2023-05-20T06:12:31;5.82;;;5.10;;
16179;SDS011;8196;49.428;10.906;2023-05-20T06:14:58;6.00;;;5.20;;
16179;SDS011;8196;49.428;10.906;2023-05-20T06:17:25;7.63;;;5.30;;
16179;SDS011;8196;49.428;10.906;2023-05-20T06:19:52;6.50;;;5.15;;
16179;SDS011;8196;49.428;10.906;2023-05-20T06:22:19;5.78;;;5.15;;
16179;SDS011;8196;49.428;10.906;2023-05-20T06:24:46;6.57;;;5.30;;
16179;SDS011;8196;49.428;10.906;2023-05-20T06:27:12;5.97;;;5.05;;
16179;SDS011;8196;49.428;10.906;2023-05-20T06:29:39;6.07;;;4.80;;
16179;SDS011;8196;49.428;10.906;2023-05-20T06:32:08;7.45;;;5.25;;
16179;SDS011;8196;49.428;10.906;2023-05-20T06:34:36;5.93;;;5.05;;
16179;SDS011;8196;49.428;10.906;2023-05-20T06:37:03;6.13;;;5.30;;
16179;SDS011;8196;49.428;10.906;2023-05-20T06:39:29;6.63;;;5.20;;
16179;SDS011;8196;49.428;10.906;2023-05-20T06:41:56;6.30;;;4.93;;
16179;SDS011;8196;49.428;10.906;2023-05-20T06:44:23;5.53;;;5.00;;
16179;SDS011;8196;49.428;10.906;2023-05-20T06:46:50;6.10;;;5.05;;
16179;SDS011;8196;49.428;10.906;2023-05-20T06:49:17;7.45;;;5.45;;
16179;SDS011;8196;49.428;10.906;2023-05-20T06:51:44;6.28;;;4.93;;
16179;SDS011;8196;49.428;10.906;2023-05-20T06:54:10;7.25;;;5.30;;
16179;SDS011;8196;49.428;10.906;2023-05-20T06:56:37;6.47;;;5.10;;
16179;SDS011;8196;49.428;10.906;2023-05-20T06:59:04;6.78;;;5.00;;
16179;SDS011;8196;49.428;10.906;2023-05-20T07:01:31;5.70;;;4.55;;
16179;SDS011;8196;49.428;10.906;2023-05-20T07:03:57;6.85;;;4.97;;
16179;SDS011;8196;49.428;10.906;2023-05-20T07:06:24;8.15;;;5.00;;
16179;SDS011;8196;49.428;10.906;2023-05-20T07:08:51;5.75;;;5.15;;
16179;SDS011;8196;49.428;10.906;2023-05-20T07:11:18;8.68;;;5.57;;
16179;SDS011;8196;49.428;10.906;2023-05-20T07:13:44;5.17;;;4.50;;
16179;SDS011;8196;49.428;10.906;2023-05-20T07:16:11;5.13;;;4.63;;
16179;SDS011;8196;49.428;10.906;2023-05-20T07:18:38;6.53;;;4.90;;
16179;SDS011;8196;49.428;10.906;2023-05-20T07:21:05;6.40;;;5.22;;
16179;SDS011;8196;49.428;10.906;2023-05-20T07:23:32;5.10;;;4.57;;
16179;SDS011;8196;49.428;10.906;2023-05-20T07:25:58;5.82;;;4.88;;
16179;SDS011;8196;49.428;10.906;2023-05-20T07:28:25;5.75;;;4.85;;
16179;SDS011;8196;49.428;10.906;2023-05-20T07:30:52;6.18;;;4.85;;
16179;SDS011;8196;49.428;10.906;2023-05-20T07:33:21;6.53;;;5.00;;
16179;SDS011;8196;49.428;10.906;2023-05-20T07:35:48;5.97;;;5.00;;
16179;SDS011;8196;49.428;10.906;2023-05-20T07:38:15;7.50;;;4.78;;
16179;SDS011;8196;49.428;10.906;2023-05-20T07:40:41;6.55;;;5.40;;
16179;SDS011;8196;49.428;10.906;2023-05-20T07:43:08;6.47;;;5.30;;
16179;SDS011;8196;49.428;10.906;2023-05-20T07:45:36;5.47;;;4.90;;
16179;SDS011;8196;49.428;10.906;2023-05-20T07:48:03;6.90;;;5.07;;
16179;SDS011;8196;49.428;10.906;2023-05-20T07:50:30;7.75;;;5.00;;
16179;SDS011;8196;49.428;10.906;2023-05-20T07:52:58;6.35;;;5.50;;
16179;SDS011;8196;49.428;10.906;2023-05-20T07:55:25;8.20;;;5.82;;
16179;SDS011;8196;49.428;10.906;2023-05-20T07:57:52;7.10;;;5.37;;
16179;SDS011;8196;49.428;10.906;2023-05-20T08:00:19;5.78;;;5.05;;
16179;SDS011;8196;49.428;10.906;2023-05-20T08:02:46;6.27;;;5.00;;
16179;SDS011;8196;49.428;10.906;2023-05-20T08:05:13;5.53;;;4.97;;
16179;SDS011;8196;49.428;10.906;2023-05-20T08:07:39;5.65;;;5.05;;
16179;SDS011;8196;49.428;10.906;2023-05-20T08:10:06;5.25;;;4.75;;
16179;SDS011;8196;49.428;10.906;2023-05-20T08:12:34;7.68;;;5.20;;
16179;SDS011;8196;49.428;10.906;2023-05-20T08:15:01;6.78;;;5.00;;
16179;SDS011;8196;49.428;10.906;2023-05-20T08:17:27;7.27;;;5.47;;
16179;SDS011;8196;49.428;10.906;2023-05-20T08:19:54;5.82;;;5.03;;
16179;SDS011;8196;49.428;10.906;2023-05-20T08:22:21;6.40;;;5.22;;
16179;SDS011;8196;49.428;10.906;2023-05-20T08:24:48;6.85;;;5.70;;
16179;SDS011;8196;49.428;10.906;2023-05-20T08:27:14;5.82;;;5.22;;
16179;SDS011;8196;49.428;10.906;2023-05-20T08:29:43;6.45;;;5.30;;
16179;SDS011;8196;49.428;10.906;2023-05-20T08:32:10;5.82;;;4.93;;
16179;SDS011;8196;49.428;10.906;2023-05-20T08:34:36;6.35;;;5.30;;
16179;SDS011;8196;49.428;10.906;2023-05-20T08:37:04;5.65;;;5.05;;
16179;SDS011;8196;49.428;10.906;2023-05-20T08:39:30;6.28;;;5.38;;
16179;SDS011;8196;49.428;10.906;2023-05-20T08:41:57;6.18;;;5.50;;
16179;SDS011;8196;49.428;10.906;2023-05-20T08:44:24;5.80;;;5.22;;
16179;SDS011;8196;49.428;10.906;2023-05-20T08:46:53;6.35;;;5.00;;
16179;SDS011;8196;49.428;10.906;2023-05-20T08:49:21;5.80;;;5.20;;
16179;SDS011;8196;49.428;10.906;2023-05-20T08:51:48;5.88;;;5.30;;
16179;SDS011;8196;49.428;10.906;2023-05-20T08:54:15;6.55;;;5.30;;
16179;SDS011;8196;49.428;10.906;2023-05-20T08:56:44;5.57;;;4.97;;
16179;SDS011;8196;49.428;10.906;2023-05-20T08:59:11;5.55;;;5.00;;
16179;SDS011;8196;49.428;10.906;2023-05-20T09:01:40;6.28;;;5.32;;
16179;SDS011;8196;49.428;10.906;2023-05-20T09:04:09;6.70;;;5.05;;
16179;SDS011;8196;49.428;10.906;2023-05-20T09:06:43;6.85;;;5.03;;
16179;SDS011;8196;49.428;10.906;2023-05-20T09:09:11;6.15;;;4.80;;
16179;SDS011;8196;49.428;10.906;2023-05-20T09:11:39;7.13;;;5.35;;
16179;SDS011;8196;49.428;10.906;2023-05-20T09:14:07;5.65;;;5.07;;
16179;SDS011;8196;49.428;10.906;2023-05-20T09:16:34;5.87;;;5.10;;
16179;SDS011;8196;49.428;10.906;2023-05-20T09:19:01;6.88;;;5.60;;
16179;SDS011;8196;49.428;10.906;2023-05-20T09:21:33;7.25;;;5.50;;
16179;SDS011;8196;49.428;10.906;2023-05-20T09:24:01;6.00;;;5.30;;
16179;SDS011;8196;49.428;10.906;2023-05-20T09:26:27;5.60;;;5.10;;
16179;SDS011;8196;49.428;10.906;2023-05-20T09:28:55;6.07;;;5.20;;
16179;SDS011;8196;49.428;10.906;2023-05-20T09:31:26;5.77;;;5.10;;
16179;SDS011;8196;49.428;10.906;2023-05-20T09:33:55;5.35;;;4.85;;
16179;SDS011;8196;49.428;10.906;2023-05-20T09:36:22;6.32;;;5.10;;
16179;SDS011;8196;49.428;10.906;2023-05-20T09:38:52;5.35;;;4.75;;
16179;SDS011;8196;49.428;10.906;2023-05-20T09:41:26;5.57;;;5.07;;
16179;SDS011;8196;49.428;10.906;2023-05-20T09:43:59;5.70;;;4.80;;
16179;SDS011;8196;49.428;10.906;2023-05-20T09:46:25;5.95;;;5.22;;
16179;SDS011;8196;49.428;10.906;2023-05-20T09:48:53;5.22;;;4.72;;
16179;SDS011;8196;49.428;10.906;2023-05-20T09:51:21;5.30;;;4.53;;
16179;SDS011;8196;49.428;10.906;2023-05-20T09:53:49;5.57;;;5.07;;
16179;SDS011;8196;49.428;10.906;2023-05-20T09:56:17;5.40;;;4.57;;
16179;SDS011;8196;49.428;10.906;2023-05-20T09:58:48;8.93;;;5.07;;
16179;SDS011;8196;49.428;10.906;2023-05-20T10:01:16;7.25;;;5.05;;
16179;SDS011;8196;49.428;10.906;2023-05-20T10:03:43;6.23;;;4.90;;
16179;SDS011;8196;49.428;10.906;2023-05-20T10:12:09;5.72;;;4.85;;
16179;SDS011;8196;49.428;10.906;2023-05-20T10:15:02;5.57;;;5.07;;
16179;SDS011;8196;49.428;10.906;2023-05-20T10:17:43;5.67;;;4.83;;
16179;SDS011;8196;49.428;10.906;2023-05-20T10:20:13;5.40;;;4.50;;
16179;SDS011;8196;49.428;10.906;2023-05-20T10:22:39;5.20;;;4.50;;
16179;SDS011;8196;49.428;10.906;2023-05-20T10:25:08;5.22;;;4.72;;
16179;SDS011;8196;49.428;10.906;2023-05-20T10:27:41;6.18;;;5.13;;
16179;SDS011;8196;49.428;10.906;2023-05-20T10:30:17;5.25;;;4.70;;
16179;SDS011;8196;49.428;10.906;2023-05-20T10:32:50;5.90;;;5.25;;
16179;SDS011;8196;49.428;10.906;2023-05-20T10:35:22;7.18;;;5.13;;
16179;SDS011;8196;49.428;10.906;2023-05-20T10:37:53;5.67;;;5.00;;
16179;SDS011;8196;49.428;10.906;2023-05-20T10:40:31;5.63;;;4.65;;
16179;SDS011;8196;49.428;10.906;2023-05-20T10:43:07;5.60;;;5.10;;
16179;SDS011;8196;49.428;10.906;2023-05-20T10:45:54;5.68;;;5.18;;
16179;SDS011;8196;49.428;10.906;2023-05-20T10:50:53;6.22;;;5.15;;
16179;SDS011;8196;49.428;10.906;2023-05-20T10:53:22;7.43;;;5.23;;
16179;SDS011;8196;49.428;10.906;2023-05-20T10:55:59;5.70;;;5.10;;
16179;SDS011;8196;49.428;10.906;2023-05-20T10:58:26;5.78;;;5.20;;
16179;SDS011;8196;49.428;10.906;2023-05-20T11:00:53;5.55;;;5.05;;
16179;SDS011;8196;49.428;10.906;2023-05-20T11:03:21;6.03;;;4.63;;
16179;SDS011;8196;49.428;10.906;2023-05-20T11:05:49;5.38;;;4.68;;
16179;SDS011;8196;49.428;10.906;2023-05-20T11:08:16;5.00;;;4.60;;
16179;SDS011;8196;49.428;10.906;2023-05-20T11:10:55;5.50;;;4.70;;
16179;SDS011;8196;49.428;10.906;2023-05-20T11:13:22;5.07;;;4.32;;
16179;SDS011;8196;49.428;10.906;2023-05-20T11:15:51;5.78;;;4.40;;
16179;SDS011;8196;49.428;10.906;2023-05-20T11:18:18;4.80;;;4.40;;
16179;SDS011;8196;49.428;10.906;2023-05-20T11:20:45;4.57;;;4.03;;
16179;SDS011;8196;49.428;10.906;2023-05-20T11:23:13;5.15;;;4.55;;
16179;SDS011;8196;49.428;10.906;2023-05-20T11:25:40;4.43;;;4.03;;
16179;SDS011;8196;49.428;10.906;2023-05-20T11:28:10;4.43;;;4.03;;
16179;SDS011;8196;49.428;10.906;2023-05-20T11:30:41;3.83;;;3.53;;
16179;SDS011;8196;49.428;10.906;2023-05-20T11:33:10;13.80;;;3.70;;
16179;SDS011;8196;49.428;10.906;2023-05-20T11:35:43;4.53;;;4.13;;
16179;SDS011;8196;49.428;10.906;2023-05-20T11:38:11;5.50;;;4.38;;
16179;SDS011;8196;49.428;10.906;2023-05-20T11:40:41;4.88;;;4.40;;
16179;SDS011;8196;49.428;10.906;2023-05-20T11:43:17;4.90;;;4.50;;
16179;SDS011;8196;49.428;10.906;2023-05-20T11:45:45;5.18;;;4.47;;
16179;SDS011;8196;49.428;10.906;2023-05-20T11:48:12;6.00;;;4.90;;
16179;SDS011;8196;49.428;10.906;2023-05-20T11:50:41;5.63;;;4.78;;
16179;SDS011;8196;49.428;10.906;2023-05-20T11:53:09;5.75;;;4.93;;
16179;SDS011;8196;49.428;10.906;2023-05-20T11:55:43;5.70;;;5.07;;
16179;SDS011;8196;49.428;10.906;2023-05-20T11:58:14;6.57;;;5.23;;
16179;SDS011;8196;49.428;10.906;2023-05-20T12:00:42;5.63;;;5.07;;
16179;SDS011;8196;49.428;10.906;2023-05-20T12:03:14;5.50;;;5.00;;
16179;SDS011;8196;49.428;10.906;2023-05-20T12:05:42;5.63;;;5.13;;
16179;SDS011;8196;49.428;10.906;2023-05-20T12:08:09;5.78;;;5.18;;
16179;SDS011;8196;49.428;10.906;2023-05-20T12:10:36;6.13;;;5.40;;
16179;SDS011;8196;49.428;10.906;2023-05-20T12:13:03;5.45;;;4.90;;
16179;SDS011;8196;49.428;10.906;2023-05-20T12:15:34;5.72;;;5.22;;
16179;SDS011;8196;49.428;10.906;2023-05-20T12:18:02;5.70;;;5.20;;
16179;SDS011;8196;49.428;10.906;2023-05-20T12:20:29;5.78;;;5.22;;
16179;SDS011;8196;49.428;10.906;2023-05-20T12:25:26;6.30;;;5.35;;
16179;SDS011;8196;49.428;10.906;2023-05-20T12:27:54;6.38;;;5.78;;
16179;SDS011;8196;49.428;10.906;2023-05-20T12:30:21;7.53;;;5.70;;
16179;SDS011;8196;49.428;10.906;2023-05-20T12:32:49;6.78;;;5.50;;
16179;SDS011;8196;49.428;10.906;2023-05-20T12:35:23;7.72;;;5.65;;
16179;SDS011;8196;49.428;10.906;2023-05-20T12:37:51;6.00;;;5.40;;
16179;SDS011;8196;49.428;10.906;2023-05-20T12:40:19;7.97;;;6.05;;
16179;SDS011;8196;49.428;10.906;2023-05-20T12:42:46;6.20;;;5.60;;
16179;SDS011;8196;49.428;10.906;2023-05-20T12:45:12;6.18;;;5.55;;
16179;SDS011;8196;49.428;10.906;2023-05-20T12:47:39;6.20;;;5.60;;
16179;SDS011;8196;49.428;10.906;2023-05-20T12:50:06;6.18;;;5.57;;
16179;SDS011;8196;49.428;10.906;2023-05-20T12:52:33;6.97;;;6.28;;
16179;SDS011;8196;49.428;10.906;2023-05-20T12:54:59;6.40;;;5.30;;
16179;SDS011;8196;49.428;10.906;2023-05-20T12:57:26;7.63;;;6.00;;
16179;SDS011;8196;49.428;10.906;2023-05-20T12:59:53;7.13;;;5.40;;
16179;SDS011;8196;49.428;10.906;2023-05-20T13:02:20;8.60;;;6.00;;
16179;SDS011;8196;49.428;10.906;2023-05-20T13:04:47;6.40;;;5.80;;
16179;SDS011;8196;49.428;10.906;2023-05-20T13:07:14;6.32;;;5.72;;
16179;SDS011;8196;49.428;10.906;2023-05-20T13:09:41;7.00;;;6.17;;
16179;SDS011;8196;49.428;10.906;2023-05-20T13:12:08;7.23;;;5.90;;
16179;SDS011;8196;49.428;10.906;2023-05-20T13:14:34;6.30;;;5.70;;
16179;SDS011;8196;49.428;10.906;2023-05-20T13:17:01;6.10;;;5.60;;
16179;SDS011;8196;49.428;10.906;2023-05-20T13:19:28;7.77;;;6.03;;
16179;SDS011;8196;49.428;10.906;2023-05-20T13:21:55;8.37;;;5.70;;
16179;SDS011;8196;49.428;10.906;2023-05-20T13:24:22;6.60;;;6.00;;
16179;SDS011;8196;49.428;10.906;2023-05-20T13:26:49;8.15;;;6.00;;
16179;SDS011;8196;49.428;10.906;2023-05-20T13:29:15;6.65;;;5.95;;
16179;SDS011;8196;49.428;10.906;2023-05-20T13:31:42;6.10;;;5.50;;
16179;SDS011;8196;49.428;10.906;2023-05-20T13:34:09;6.72;;;5.75;;
16179;SDS011;8196;49.428;10.906;2023-05-20T13:36:36;6.53;;;5.93;;
16179;SDS011;8196;49.428;10.906;2023-05-20T13:39:03;6.85;;;6.15;;
16179;SDS011;8196;49.428;10.906;2023-05-20T13:41:29;7.82;;;6.50;;
16179;SDS011;8196;49.428;10.906;2023-05-20T13:43:56;7.15;;;5.95;;
16179;SDS011;8196;49.428;10.906;2023-05-20T13:46:23;8.10;;;6.10;;
16179;SDS011;8196;49.428;10.906;2023-05-20T13:48:50;5.78;;;5.28;;
16179;SDS011;8196;49.428;10.906;2023-05-20T13:51:17;7.27;;;5.43;;
16179;SDS011;8196;49.428;10.906;2023-05-20T13:53:43;7.03;;;5.77;;
16179;SDS011;8196;49.428;10.906;2023-05-20T13:56:10;6.85;;;6.15;;
16179;SDS011;8196;49.428;10.906;2023-05-20T13:58:37;8.38;;;5.82;;
16179;SDS011;8196;49.428;10.906;2023-05-20T14:01:04;9.70;;;6.22;;
16179;SDS011;8196;49.428;10.906;2023-05-20T14:03:31;8.05;;;5.68;;
16179;SDS011;8196;49.428;10.906;2023-05-20T14:05:59;8.35;;;5.95;;
16179;SDS011;8196;49.428;10.906;2023-05-20T14:08:26;8.40;;;5.90;;
16179;SDS011;8196;49.428;10.906;2023-05-20T14:10:53;6.40;;;5.60;;
16179;SDS011;8196;49.428;10.906;2023-05-20T14:13:21;5.85;;;5.25;;
16179;SDS011;8196;49.428;10.906;2023-05-20T14:15:48;6.13;;;5.53;;
16179;SDS011;8196;49.428;10.906;2023-05-20T14:18:16;7.03;;;5.85;;
16179;SDS011;8196;49.428;10.906;2023-05-20T14:20:43;8.57;;;5.90;;
16179;SDS011;8196;49.428;10.906;2023-05-20T14:23:10;6.80;;;5.63;;
16179;SDS011;8196;49.428;10.906;2023-05-20T14:25:38;5.85;;;5.30;;
16179;SDS011;8196;49.428;10.906;2023-05-20T14:28:05;6.03;;;5.43;;
16179;SDS011;8196;49.428;10.906;2023-05-20T14:30:32;6.72;;;5.75;;
16179;SDS011;8196;49.428;10.906;2023-05-20T14:32:59;6.13;;;5.53;;
16179;SDS011;8196;49.428;10.906;2023-05-20T14:35:26;6.15;;;5.25;;
16179;SDS011;8196;49.428;10.906;2023-05-20T14:37:53;6.95;;;5.60;;
16179;SDS011;8196;49.428;10.906;2023-05-20T14:40:20;6.93;;;5.80;;
16179;SDS011;8196;49.428;10.906;2023-05-20T14:42:46;6.25;;;5.40;;
16179;SDS011;8196;49.428;10.906;2023-05-20T14:45:13;6.65;;;5.38;;
16179;SDS011;8196;49.428;10.906;2023-05-20T14:47:40;6.30;;;5.70;;
16179;SDS011;8196;49.428;10.906;2023-05-20T14:50:07;5.60;;;4.97;;
16179;SDS011;8196;49.428;10.906;2023-05-20T14:52:34;5.50;;;5.00;;
16179;SDS011;8196;49.428;10.906;2023-05-20T14:55:01;5.67;;;5.17;;
16179;SDS011;8196;49.428;10.906;2023-05-20T14:57:28;6.60;;;5.27;;
16179;SDS011;8196;49.428;10.906;2023-05-20T14:59:54;6.32;;;5.50;;
16179;SDS011;8196;49.428;10.906;2023-05-20T15:02:21;5.75;;;5.20;;
16179;SDS011;8196;49.428;10.906;2023-05-20T15:04:48;5.70;;;5.20;;
16179;SDS011;8196;49.428;10.906;2023-05-20T15:07:15;6.40;;;5.22;;